createdAt,value
2019-02-12T00:00:10.433Z,73.69
2019-02-12T00:02:10.411Z,73.16
2019-02-12T00:04:18.253Z,73.46
2019-02-12T00:06:15.396Z,73.43
2019-02-12T00:08:15.408Z,73.52
2019-02-12T00:10:15.345Z,73.56
2019-02-12T00:12:14.950Z,73.09
2019-02-12T00:14:14.758Z,73.56
2019-02-12T00:16:10.391Z,73.27
2019-02-12T00:18:19.593Z,73.07
2019-02-12T00:20:14.907Z,72.98
2019-02-12T00:22:10.394Z,73.55
2019-02-12T00:24:10.445Z,73.76
2019-02-12T00:26:10.392Z,73.13
2019-02-12T00:28:14.949Z,73.34
2019-02-12T00:30:14.473Z,73.69
2019-02-12T00:32:14.634Z,73.77
2019-02-12T00:34:15.368Z,73.44
2019-02-12T00:36:10.428Z,73.77
2019-02-12T00:38:10.368Z,73.06
2019-02-12T00:40:15.470Z,73.12
2019-02-12T00:42:14.214Z,73.16
2019-02-12T00:44:10.431Z,73.15
2019-02-12T00:46:15.083Z,73.59
2019-02-12T00:48:10.440Z,72.95
2019-02-12T00:50:10.421Z,73.09
2019-02-12T00:52:10.392Z,73.54
2019-02-12T00:54:10.449Z,73.38
2019-02-12T00:56:15.473Z,73.55
2019-02-12T00:58:15.435Z,73.31
2019-02-12T01:00:10.462Z,73.53
2019-02-12T01:02:14.966Z,73.27
2019-02-12T01:04:15.079Z,73.01
2019-02-12T01:06:15.625Z,73.35
2019-02-12T01:08:10.390Z,73.16
2019-02-12T01:10:15.023Z,73.22
2019-02-12T01:12:10.441Z,73.11
2019-02-12T01:14:14.019Z,73.25
2019-02-12T01:16:14.945Z,73.11
2019-02-12T01:18:10.434Z,73.03
2019-02-12T01:20:10.411Z,73.50
2019-02-12T01:22:10.386Z,73.11
2019-02-12T01:24:14.187Z,73.14
2019-02-12T01:26:10.423Z,73.11
2019-02-12T01:28:10.416Z,73.11
2019-02-12T01:30:10.461Z,73.36
2019-02-12T01:32:14.944Z,73.11
2019-02-12T01:34:10.429Z,72.99
2019-02-12T01:36:14.871Z,72.99
2019-02-12T01:38:15.432Z,73.29
2019-02-12T01:40:14.220Z,72.85
2019-02-12T01:42:10.469Z,73.23
2019-02-12T01:44:10.430Z,72.84
2019-02-12T01:46:17.065Z,72.98
2019-02-12T01:48:15.492Z,73.34
2019-02-12T01:50:15.325Z,73.51
2019-02-12T01:52:10.409Z,72.83
2019-02-12T01:54:15.177Z,73.30
2019-02-12T01:56:15.395Z,73.12
2019-02-12T01:58:10.427Z,73.34
2019-02-12T02:00:10.463Z,72.86
2019-02-12T02:03:54.262Z,72.95
2019-02-12T02:05:57.978Z,73.49
2019-02-12T02:07:54.267Z,72.92
2019-02-12T02:09:59.261Z,73.40
2019-02-12T02:12:10.679Z,73.44
2019-02-12T02:13:54.285Z,73.22
2019-02-12T02:15:56.566Z,72.92
2019-02-12T02:17:59.208Z,73.11
2019-02-12T02:19:54.275Z,73.04
2019-02-12T02:21:54.512Z,72.85
2019-02-12T02:23:54.246Z,73.48
2019-02-12T02:25:54.263Z,73.20
2019-02-12T02:27:54.273Z,73.16
2019-02-12T02:29:59.257Z,72.93
2019-02-12T02:32:03.465Z,73.11
2019-02-12T02:33:54.335Z,73.19
2019-02-12T02:35:59.457Z,73.10
2019-02-12T02:37:54.256Z,73.14
2019-02-12T02:39:54.320Z,72.90
2019-02-12T02:41:54.307Z,73.20
2019-02-12T02:43:54.292Z,72.92
2019-02-12T02:45:54.317Z,72.93
2019-02-12T02:47:54.303Z,72.89
2019-02-12T02:49:54.268Z,72.98
2019-02-12T02:51:54.328Z,72.84
2019-02-12T02:53:54.281Z,73.19
2019-02-12T02:55:58.940Z,72.86
2019-02-12T02:57:54.320Z,73.41
2019-02-12T02:59:54.264Z,73.06
2019-02-12T03:02:04.526Z,73.09
2019-02-12T03:03:54.322Z,72.96
2019-02-12T03:05:54.269Z,72.61
2019-02-12T03:07:59.322Z,73.15
2019-02-12T03:09:54.289Z,72.86
2019-02-12T03:11:54.302Z,72.85
2019-02-12T03:13:54.264Z,72.93
2019-02-12T03:15:59.519Z,72.64
2019-02-12T03:17:59.251Z,73.04
2019-02-12T03:19:59.261Z,72.76
2019-02-12T03:22:03.114Z,72.71
2019-02-12T03:23:58.810Z,72.77
2019-02-12T03:25:54.308Z,72.84
2019-02-12T03:27:54.344Z,72.74
2019-02-12T03:29:58.780Z,72.87
2019-02-12T03:32:03.604Z,72.74
2019-02-12T03:33:54.320Z,72.86
2019-02-12T03:35:54.284Z,73.20
2019-02-12T03:37:58.719Z,72.90
2019-02-12T03:39:54.326Z,72.80
2019-02-12T03:41:54.317Z,72.83
2019-02-12T03:43:54.293Z,72.89
2019-02-12T03:45:54.318Z,72.73
2019-02-12T03:47:59.266Z,72.75
2019-02-12T03:49:58.888Z,72.75
2019-02-12T03:51:54.300Z,72.74
2019-02-12T03:53:54.294Z,73.19
2019-02-12T03:55:58.722Z,73.15
2019-02-12T03:57:54.328Z,72.77
2019-02-12T03:59:54.313Z,72.75
2019-02-12T04:02:03.238Z,72.95
2019-02-12T04:03:54.377Z,72.91
2019-02-12T04:05:54.300Z,73.06
2019-02-12T04:08:02.755Z,73.10
2019-02-12T04:09:54.304Z,72.68
2019-02-12T04:11:54.329Z,73.02
2019-02-12T04:13:54.262Z,72.81
2019-02-12T04:15:54.303Z,73.24
2019-02-12T04:17:57.016Z,73.22
2019-02-12T04:19:54.279Z,72.83
2019-02-12T04:21:54.327Z,72.96
2019-02-12T04:23:54.331Z,72.91
2019-02-12T04:25:54.324Z,73.13
2019-02-12T04:27:55.545Z,72.83
2019-02-12T04:29:54.314Z,73.01
2019-02-12T04:32:03.501Z,72.88
2019-02-12T04:33:54.342Z,72.96
2019-02-12T04:35:54.313Z,73.18
2019-02-12T04:37:54.301Z,72.76
2019-02-12T04:39:59.870Z,73.05
2019-02-12T04:41:59.317Z,73.14
2019-02-12T04:43:54.341Z,72.91
2019-02-12T04:45:54.335Z,73.15
2019-02-12T04:47:58.736Z,72.91
2019-02-12T04:49:54.297Z,73.16
2019-02-12T04:51:54.385Z,72.85
2019-02-12T04:53:58.863Z,73.15
2019-02-12T04:55:55.204Z,72.99
2019-02-12T04:57:54.325Z,72.92
2019-02-12T04:59:54.318Z,73.14
2019-02-12T05:02:03.505Z,72.87
2019-02-12T05:03:54.345Z,72.82
2019-02-12T05:05:54.384Z,72.96
2019-02-12T05:08:02.630Z,73.07
2019-02-12T05:09:58.861Z,73.21
2019-02-12T05:11:54.359Z,72.90
2019-02-12T05:13:59.311Z,73.30
2019-02-12T05:15:54.326Z,72.97
2019-02-12T05:17:59.545Z,73.44
2019-02-12T05:19:55.353Z,73.02
2019-02-12T05:21:55.354Z,73.17
2019-02-12T05:23:59.128Z,73.29
2019-02-12T05:26:00.051Z,73.33
2019-02-12T05:27:58.870Z,73.64
2019-02-12T05:29:56.185Z,73.34
2019-02-12T05:32:03.517Z,73.28
2019-02-12T05:34:01.643Z,73.08
2019-02-12T05:35:55.639Z,73.32
2019-02-12T05:37:54.336Z,72.66
2019-02-12T05:39:54.330Z,73.34
2019-02-12T05:41:54.372Z,73.11
2019-02-12T05:43:54.391Z,73.21
2019-02-12T05:45:58.942Z,73.44
2019-02-12T05:47:54.367Z,73.24
2019-02-12T05:49:59.286Z,73.33
2019-02-12T05:51:54.363Z,73.21
2019-02-12T05:53:54.379Z,73.47
2019-02-12T05:55:58.834Z,73.26
2019-02-12T05:57:54.328Z,73.35
2019-02-12T05:59:54.372Z,73.24
2019-02-12T06:02:04.251Z,73.59
2019-02-12T06:03:54.337Z,73.41
2019-02-12T06:05:54.369Z,73.30
2019-02-12T06:07:54.339Z,73.05
2019-02-12T06:09:55.494Z,73.25
2019-02-12T06:11:54.404Z,73.14
2019-02-12T06:13:54.337Z,72.85
2019-02-12T06:15:54.340Z,73.23
2019-02-12T06:17:55.320Z,73.25
2019-02-12T06:19:58.819Z,73.63
2019-02-12T06:21:54.338Z,73.28
2019-02-12T06:23:54.345Z,73.39
2019-02-12T06:25:54.375Z,73.39
2019-02-12T06:27:54.364Z,73.30
2019-02-12T06:29:54.384Z,73.41
2019-02-12T06:32:00.312Z,73.17
2019-02-12T06:33:54.368Z,73.28
2019-02-12T06:35:54.363Z,73.25
2019-02-12T06:37:54.352Z,73.25
2019-02-12T06:39:54.304Z,73.35
2019-02-12T06:41:54.360Z,73.38
2019-02-12T06:43:54.329Z,73.40
2019-02-12T06:45:59.340Z,73.24
2019-02-12T06:47:54.372Z,73.30
2019-02-12T06:49:54.343Z,72.98
2019-02-12T06:51:54.344Z,73.57
2019-02-12T06:53:54.401Z,73.54
2019-02-12T06:55:54.337Z,73.37
2019-02-12T06:57:54.354Z,73.67
2019-02-12T06:59:54.370Z,73.63
2019-02-12T07:02:03.363Z,73.01
2019-02-12T07:03:54.359Z,73.60
2019-02-12T07:05:54.370Z,73.56
2019-02-12T07:07:56.367Z,73.71
2019-02-12T07:09:54.342Z,73.46
2019-02-12T07:11:59.402Z,73.51
2019-02-12T07:13:54.349Z,73.26
2019-02-12T07:15:54.344Z,73.47
2019-02-12T07:17:59.310Z,73.45
2019-02-12T07:19:54.358Z,73.54
2019-02-12T07:21:59.323Z,73.94
2019-02-12T07:23:54.395Z,73.06
2019-02-12T07:25:55.238Z,73.41
2019-02-12T07:29:54.399Z,73.47
2019-02-12T07:37:11.940Z,73.99
2019-02-12T07:39:11.925Z,73.41
2019-02-12T07:41:20.142Z,73.44
2019-02-12T07:43:16.772Z,73.89
2019-02-12T07:45:14.710Z,73.38
2019-02-12T07:47:11.805Z,73.40
2019-02-12T07:49:11.929Z,73.53
2019-02-12T07:51:11.783Z,73.72
2019-02-12T07:53:11.900Z,73.70
2019-02-12T07:55:12.034Z,73.64
2019-02-12T07:57:11.793Z,73.42
2019-02-12T07:59:11.802Z,73.76
2019-02-12T08:01:18.036Z,73.53
2019-02-12T08:03:11.994Z,73.54
2019-02-12T08:07:12.161Z,73.75
2019-02-12T08:09:16.833Z,73.66
2019-02-12T08:11:11.832Z,73.74
2019-02-12T08:13:11.864Z,73.49
2019-02-12T08:15:12.049Z,73.56
2019-02-12T08:17:16.502Z,73.57
2019-02-12T08:19:11.979Z,73.73
2019-02-12T08:21:14.809Z,73.75
2019-02-12T08:23:11.867Z,73.70
2019-02-12T08:25:16.792Z,73.72
2019-02-12T08:27:11.876Z,73.63
2019-02-12T08:29:16.865Z,73.56
2019-02-12T08:31:12.066Z,73.67
2019-02-12T08:33:11.982Z,73.82
2019-02-12T08:35:16.878Z,73.58
2019-02-12T08:37:21.854Z,73.63
2019-02-12T08:39:16.821Z,73.50
2019-02-12T08:41:11.998Z,73.96
2019-02-12T08:43:12.055Z,73.72
2019-02-12T08:45:11.927Z,73.34
2019-02-12T08:47:16.152Z,73.81
2019-02-12T08:49:12.076Z,73.52
2019-02-12T08:51:17.072Z,73.99
2019-02-12T08:53:14.088Z,73.64
2019-02-12T08:55:12.024Z,73.75
2019-02-12T08:57:11.923Z,73.73
2019-02-12T08:59:14.000Z,73.72
2019-02-12T09:01:11.932Z,74.05
2019-02-12T09:03:16.972Z,73.83
2019-02-12T09:05:16.507Z,73.73
2019-02-12T09:09:08.965Z,73.41
2019-02-12T09:11:09.053Z,73.75
2019-02-12T09:13:08.150Z,73.77
2019-02-12T09:15:08.163Z,73.88
2019-02-12T09:17:08.141Z,73.63
2019-02-12T09:19:08.125Z,73.90
2019-02-12T09:21:13.087Z,73.70
2019-02-12T09:23:08.178Z,73.66
2019-02-12T09:25:13.033Z,73.97
2019-02-12T09:27:08.104Z,73.93
2019-02-12T09:29:13.030Z,73.70
2019-02-12T09:31:08.009Z,73.85
2019-02-12T09:33:08.247Z,73.69
2019-02-12T09:35:12.772Z,74.02
2019-02-12T09:37:08.798Z,74.23
2019-02-12T09:39:08.179Z,73.86
2019-02-12T09:41:08.222Z,74.00
2019-02-12T09:43:07.990Z,73.84
2019-02-12T09:45:12.836Z,73.96
2019-02-12T09:47:08.130Z,74.03
2019-02-12T09:49:08.215Z,73.84
2019-02-12T09:51:08.148Z,73.99
2019-02-12T09:53:07.974Z,73.76
2019-02-12T09:55:12.968Z,73.96
2019-02-12T09:57:08.101Z,74.33
2019-02-12T09:59:08.198Z,73.88
2019-02-12T10:01:09.962Z,73.92
2019-02-12T10:03:08.112Z,73.91
2019-02-12T10:05:08.015Z,73.71
2019-02-12T10:07:18.214Z,73.92
2019-02-12T10:09:08.193Z,73.90
2019-02-12T10:11:08.183Z,74.01
2019-02-12T10:13:12.515Z,73.87
2019-02-12T10:15:08.205Z,73.49
2019-02-12T10:17:08.216Z,74.31
2019-02-12T10:19:08.029Z,73.82
2019-02-12T10:21:08.166Z,74.20
2019-02-12T10:23:08.124Z,74.09
2019-02-12T10:25:12.383Z,73.74
2019-02-12T10:27:08.193Z,74.13
2019-02-12T10:29:08.186Z,73.98
2019-02-12T10:31:08.223Z,74.14
2019-02-12T10:33:08.071Z,74.20
2019-02-12T10:39:56.585Z,74.63
2019-02-12T10:41:52.219Z,74.10
2019-02-12T10:45:52.226Z,74.00
2019-02-12T10:47:52.235Z,73.87
2019-02-12T10:51:52.219Z,73.62
2019-02-12T10:53:54.309Z,73.68
2019-02-12T10:57:52.207Z,73.88
2019-02-12T10:59:57.202Z,73.95
2019-02-12T11:03:52.237Z,73.56
2019-02-12T11:05:52.260Z,73.63
2019-02-12T11:09:52.244Z,73.73
2019-02-12T11:11:52.225Z,73.68
2019-02-12T11:15:52.269Z,73.55
2019-02-12T11:17:52.237Z,73.60
2019-02-12T11:21:52.216Z,73.18
2019-02-12T11:23:52.244Z,73.53
2019-02-12T11:27:52.223Z,73.19
2019-02-12T11:29:52.212Z,73.51
2019-02-12T11:33:52.225Z,73.76
2019-02-12T11:35:52.243Z,73.71
2019-02-12T11:39:52.223Z,73.74
2019-02-12T11:41:52.251Z,73.46
2019-02-12T11:45:52.259Z,73.97
2019-02-12T11:47:52.235Z,73.73
2019-02-12T11:51:52.226Z,73.78
2019-02-12T11:53:52.243Z,73.57
2019-02-12T11:57:52.221Z,73.66
2019-02-12T11:59:54.714Z,73.78
2019-02-12T12:03:52.297Z,73.66
2019-02-12T12:05:57.219Z,73.69
2019-02-12T12:09:57.278Z,73.53
2019-02-12T12:11:57.606Z,73.56
2019-02-12T12:15:52.279Z,73.92
2019-02-12T14:21:09.441Z,73.78
2019-02-12T14:23:09.447Z,73.90
2019-02-12T14:27:09.467Z,73.75
2019-02-12T14:29:09.481Z,73.73
2019-02-12T14:33:09.473Z,74.00
2019-02-12T14:35:09.490Z,73.90
2019-02-12T14:39:09.486Z,73.87
2019-02-12T14:41:09.470Z,73.84
2019-02-12T14:45:09.514Z,74.09
2019-02-12T14:47:09.509Z,73.95
2019-02-12T14:51:13.233Z,73.73
2019-02-12T14:53:09.481Z,74.11
2019-02-12T14:57:09.500Z,74.03
2019-02-12T14:59:13.384Z,74.17
2019-02-12T15:03:23.903Z,74.11
2019-02-12T15:05:18.059Z,74.19
2019-02-12T15:09:09.548Z,74.00
2019-02-12T15:11:14.447Z,74.21
2019-02-12T15:15:09.514Z,73.76
2019-02-12T15:17:14.337Z,74.38
2019-02-12T15:21:09.525Z,73.95
2019-02-12T15:23:09.533Z,74.28
2019-02-12T15:27:09.522Z,73.87
2019-02-12T15:29:09.543Z,74.29
2019-02-12T15:33:09.524Z,74.11
2019-02-12T15:35:09.541Z,74.07
2019-02-12T15:39:09.534Z,74.15
2019-02-12T15:41:09.522Z,74.19
2019-02-12T15:45:09.544Z,74.08
2019-02-12T15:47:09.552Z,74.26
2019-02-12T15:51:09.531Z,74.21
2019-02-12T15:53:09.555Z,74.09
2019-02-12T15:57:14.745Z,74.33
2019-02-12T15:59:09.554Z,74.44
2019-02-12T16:03:09.579Z,74.51
2019-02-12T16:05:14.652Z,74.43
2019-02-12T16:09:16.183Z,74.41
2019-02-12T16:11:14.509Z,74.32
2019-02-12T16:15:12.021Z,74.43
2019-02-12T16:17:17.540Z,74.48
2019-02-12T16:21:09.572Z,74.46
2019-02-12T16:23:14.460Z,74.26
2019-02-12T16:28:58.444Z,74.49
2019-02-12T16:30:58.439Z,74.37
2019-02-12T16:33:05.064Z,74.40
2019-02-12T16:34:58.442Z,74.32
2019-02-12T16:37:08.374Z,74.45
2019-02-12T16:38:58.441Z,74.51
2019-02-12T16:41:03.660Z,74.52
2019-02-12T16:43:02.766Z,74.49
2019-02-12T16:44:58.390Z,74.50
2019-02-12T16:47:02.364Z,74.51
2019-02-12T16:48:58.451Z,74.51
2019-02-12T16:50:58.455Z,74.42
2019-02-12T16:52:58.481Z,74.90
2019-02-12T16:56:41.537Z,74.72
2019-02-12T16:58:44.483Z,74.62
2019-02-12T17:13:33.250Z,75.04
2019-02-12T17:15:37.053Z,74.87
2019-02-12T17:17:33.329Z,75.04
2019-02-12T17:19:30.008Z,75.19
2019-02-12T17:21:34.177Z,75.08
2019-02-12T17:23:36.101Z,74.91
2019-02-12T17:25:29.252Z,74.78
2019-02-12T17:27:29.199Z,75.17
2019-02-12T17:29:32.668Z,75.02
2019-02-12T17:31:29.226Z,74.92
2019-02-12T17:33:56.046Z,75.12
2019-02-12T17:35:29.236Z,74.92
2019-02-12T17:37:33.911Z,75.06
2019-02-12T17:39:32.176Z,75.17
2019-02-12T17:41:29.239Z,75.21
2019-02-12T17:45:34.122Z,75.13
2019-02-12T17:47:29.308Z,74.97
2019-02-12T17:49:36.534Z,75.09
2019-02-12T17:51:29.229Z,74.88
2019-02-12T17:53:29.226Z,74.90
2019-02-12T17:55:29.100Z,75.27
2019-02-12T17:57:29.296Z,75.24
2019-02-12T17:59:29.161Z,75.34
2019-02-12T18:01:34.150Z,75.24
2019-02-12T18:03:32.443Z,75.12
2019-02-12T18:05:29.318Z,75.52
2019-02-12T18:07:29.116Z,75.03
2019-02-12T18:09:33.370Z,75.67
2019-02-12T18:11:38.460Z,75.19
2019-02-12T18:13:30.641Z,75.54
2019-02-12T18:15:29.188Z,75.25
2019-02-12T18:17:29.270Z,75.08
2019-02-12T18:19:29.111Z,75.20
2019-02-12T18:21:29.136Z,74.84
2019-02-12T18:23:33.699Z,75.43
2019-02-12T18:25:29.258Z,75.14
2019-02-12T18:27:33.390Z,75.07
2019-02-12T18:29:29.303Z,75.21
2019-02-12T18:31:33.995Z,75.17
2019-02-12T18:33:39.786Z,75.06
2019-02-12T18:35:29.329Z,75.28
2019-02-12T18:37:34.129Z,74.97
2019-02-12T18:39:31.308Z,75.16
2019-02-12T18:41:38.194Z,75.22
2019-02-12T18:43:31.664Z,74.96
2019-02-12T18:45:29.270Z,74.86
2019-02-12T18:47:29.161Z,75.35
2019-02-12T18:49:33.628Z,75.29
2019-02-12T18:51:29.139Z,75.21
2019-02-12T18:53:29.348Z,75.38
2019-02-12T18:55:32.832Z,75.37
2019-02-12T18:57:34.083Z,75.15
2019-02-12T18:59:29.159Z,75.30
2019-02-12T19:01:29.155Z,75.15
2019-02-12T19:03:33.804Z,74.96
2019-02-12T19:05:33.156Z,75.34
2019-02-12T19:07:29.275Z,74.94
2019-02-12T19:09:33.767Z,74.99
2019-02-12T19:11:48.449Z,74.87
2019-02-12T19:13:31.889Z,75.14
2019-02-12T19:15:54.720Z,74.92
2019-02-12T19:17:50.814Z,74.78
2019-02-12T19:19:49.707Z,74.87
2019-02-12T19:21:50.040Z,75.17
2019-02-12T19:23:49.708Z,75.16
2019-02-12T19:25:51.805Z,75.14
2019-02-12T19:27:52.128Z,75.34
2019-02-12T19:29:49.709Z,75.14
2019-02-12T19:31:49.752Z,74.94
2019-02-12T19:33:49.744Z,75.03
2019-02-12T19:35:49.748Z,75.27
2019-02-12T19:37:49.696Z,74.80
2019-02-12T19:39:49.724Z,74.92
2019-02-12T19:41:54.555Z,74.97
2019-02-12T19:45:49.763Z,75.16
2019-02-12T19:47:49.773Z,75.00
2019-02-12T19:49:51.826Z,75.11
2019-02-12T19:51:51.951Z,75.07
2019-02-12T19:53:54.695Z,74.87
2019-02-12T19:55:54.222Z,74.91
2019-02-12T19:57:54.234Z,74.77
2019-02-12T19:59:49.709Z,75.15
2019-02-12T20:01:49.730Z,74.84
2019-02-12T20:03:54.766Z,74.84
2019-02-12T20:05:49.699Z,74.92
2019-02-12T20:07:50.713Z,75.00
2019-02-12T20:09:50.047Z,74.98
2019-02-12T20:11:54.751Z,74.94
2019-02-12T20:13:49.762Z,74.76
2019-02-12T20:15:49.778Z,74.90
2019-02-12T20:17:54.375Z,74.86
2019-02-12T20:19:49.752Z,75.12
2019-02-12T20:21:49.776Z,75.07
2019-02-12T20:23:49.814Z,74.66
2019-02-12T20:25:49.731Z,74.80
2019-02-12T20:27:54.796Z,74.96
2019-02-12T20:29:54.827Z,75.25
2019-02-12T20:31:50.072Z,74.92
2019-02-12T20:33:57.136Z,75.10
2019-02-12T20:35:49.749Z,75.28
2019-02-12T20:37:54.277Z,74.86
2019-02-12T20:39:49.809Z,74.97
2019-02-12T20:42:03.948Z,74.75
2019-02-12T20:43:49.776Z,75.08
2019-02-12T20:45:49.757Z,74.99
2019-02-12T20:47:49.865Z,74.76
2019-02-12T20:49:53.405Z,74.66
2019-02-12T20:51:49.788Z,74.79
2019-02-12T20:53:49.773Z,74.74
2019-02-12T20:55:49.779Z,74.98
2019-02-12T20:57:54.671Z,74.99
2019-02-12T20:59:52.181Z,74.82
2019-02-12T21:01:49.781Z,74.61
2019-02-12T21:03:49.781Z,74.97
2019-02-12T21:05:53.401Z,74.90
2019-02-12T21:07:49.887Z,75.12
2019-02-12T21:09:51.864Z,74.99
2019-02-12T21:11:58.954Z,75.02
2019-02-12T21:13:49.770Z,74.88
2019-02-12T21:15:49.783Z,74.82
2019-02-12T21:17:53.489Z,74.81
2019-02-12T21:19:49.798Z,74.83
2019-02-12T21:21:50.072Z,75.20
2019-02-12T21:23:59.259Z,74.82
2019-02-12T21:25:59.002Z,75.18
2019-02-12T21:27:49.903Z,75.05
2019-02-12T21:29:51.969Z,74.86
2019-02-12T21:31:51.137Z,74.86
2019-02-12T21:33:53.569Z,75.11
2019-02-12T21:35:51.900Z,75.00
2019-02-12T21:37:54.354Z,74.74
2019-02-12T21:39:49.938Z,75.02
2019-02-12T21:41:53.577Z,74.76
2019-02-12T21:43:49.743Z,74.71
2019-02-12T21:45:54.765Z,74.77
2019-02-12T21:47:53.506Z,75.05
2019-02-12T21:49:49.741Z,74.63
2019-02-12T21:51:52.198Z,74.91
2019-02-12T21:53:49.746Z,75.06
2019-02-12T21:55:53.409Z,74.78
2019-02-12T21:57:50.000Z,75.05
2019-02-12T21:59:51.920Z,74.87
2019-02-12T22:01:54.106Z,74.81
2019-02-12T22:03:49.812Z,74.93
2019-02-12T22:05:49.781Z,74.82
2019-02-12T22:07:49.770Z,75.29
2019-02-12T22:09:49.967Z,74.95
2019-02-12T22:11:51.845Z,74.99
2019-02-12T22:13:49.983Z,74.83
2019-02-12T22:15:49.828Z,74.74
2019-02-12T22:17:49.786Z,74.87
2019-02-12T22:19:51.842Z,74.69
2019-02-12T22:21:50.027Z,75.01
2019-02-12T22:23:49.767Z,74.65
2019-02-12T22:25:49.764Z,74.92
2019-02-12T22:27:50.176Z,74.96
2019-02-12T22:29:53.409Z,74.92
2019-02-12T22:31:49.925Z,75.03
2019-02-12T22:33:50.008Z,75.00
2019-02-12T22:35:49.818Z,75.04
2019-02-12T22:37:49.813Z,74.92
2019-02-12T22:39:49.787Z,75.03
2019-02-12T22:41:49.778Z,74.49
2019-02-12T22:43:49.826Z,74.89
2019-02-12T22:45:49.972Z,74.77
2019-02-12T22:47:53.420Z,74.88
2019-02-12T22:49:54.371Z,74.94
2019-02-12T22:51:54.393Z,74.89
2019-02-12T22:53:54.799Z,75.05
2019-02-12T22:55:49.756Z,75.09
2019-02-12T22:57:49.852Z,75.10
2019-02-12T22:59:53.493Z,74.93
2019-02-12T23:01:54.247Z,74.97
2019-02-12T23:03:49.840Z,74.84
2019-02-12T23:05:49.779Z,75.16
2019-02-12T23:07:55.027Z,75.07
2019-02-12T23:09:49.856Z,75.18
2019-02-12T23:11:49.816Z,74.71
2019-02-12T23:13:49.822Z,74.91
2019-02-12T23:15:54.828Z,75.20
2019-02-12T23:17:49.835Z,74.66
2019-02-12T23:19:49.839Z,74.39
2019-02-12T23:21:49.994Z,74.80
2019-02-12T23:23:49.772Z,75.06
2019-02-12T23:25:54.190Z,74.77
2019-02-12T23:27:57.284Z,75.11
2019-02-12T23:29:49.799Z,74.81
2019-02-12T23:31:49.805Z,74.97
2019-02-12T23:33:49.847Z,75.10
2019-02-12T23:35:49.829Z,74.84
2019-02-12T23:37:49.797Z,75.40
2019-02-12T23:39:49.842Z,74.88
2019-02-12T23:41:53.628Z,74.72
2019-02-12T23:43:54.533Z,74.91
2019-02-12T23:45:49.857Z,74.93
2019-02-12T23:47:49.841Z,74.94
2019-02-12T23:49:49.816Z,75.06
2019-02-12T23:51:49.910Z,74.87
2019-02-12T23:53:51.781Z,74.84
2019-02-12T23:55:49.837Z,75.03
2019-02-12T23:57:49.857Z,75.25
2019-02-12T23:59:49.830Z,74.59
